Murtala Muhammed International Airport
DNMM : now visible

Airfield :











YOU CAN JOIN US ON...

 
LOGIN :

Register | Disclaimer

   EN    FR    IT 

 









Legend :    VFR   Marginal VFR   IFR   Intensive IFR   Very Intensive IFR
Visi :
Ceiling :
>= 8 km
>= 3000ft
5 to 8 km
1000 to 3000 ft
1500m to 5 km
500 to 1000 ft
800 to 1500m
200 to 500 ft
< 800m
< 200 ft
Symbols :   Thunderstorms  Fog  Heavy snow  Heavy precipitations  Wind > 20 kt







- Airport Elevation : 135 ft
- IATA code : LOS


DNMM - Murtala Muhammed International

CURRENT METAR :
  • 161900Z 24005KT 9999 FEW011 27/25 Q1015 NOSIG

EXPIRED METARs :
  • 161800Z 22006KT 9999 FEW011 27/25 Q1014 NOSIG
  • 161700Z 21010KT 9999 FEW013 29/25 Q1014 NOSIG

TAF TAF DNMM
Valid from the 16 at 18:00 until the 18 at 00:00 UTC


161545Z 1618/1724 VRB02KT 9999 FEW011
PROB30 1705/1707 5000 HZ/BR
BECMG 1708/1710 28010KT BKN013
TEMPO 1712/1718 BKN013 FEW020CB
PROB30 1714/1717 5000 -TSRA BKN010 FEW019CB
BECMG 1718/1720 VRB02KT FEW010
DNKK FIR / Africa



MET'MAP, your aeronautical weather chart ! - Copyright ORBIFLY December 2007 - Disclaimer

ORBIFLY MET'MAP TEAM :

Programming & Development : Alexandra Zaïnal
Concept & Development : Baudouin d'Aumeries
Co-Development & Prog : Marc-Olivier Méhu
Technical & hardware support : Manuel Goepfert

Contact : metmap@orbifly.com




SOURCES & CREDITS :

   NOAA       Earth
Advisory